Time;durP1;ratioP1;P1;durP2;ratioP2;P2;SDS_P1;SDS_P2;PMS_P1;PMS_P2;Temp;Humidity;BMP_temperature;BMP_pressure;BME280_temperature;BME280_humidity;BME280_pressure;Samples;Min_cycle;Max_cycle;Signal;HPM_P1;HPM_P2
2021/05/28 00:02:13;;;;;;;18.20;4.22;;;19.50;64.30;;;;;;5036437;28;20387;-67
2021/05/28 00:04:41;;;;;;;14.45;4.22;;;19.50;64.20;;;;;;5036607;28;20025;-68
2021/05/28 00:07:07;;;;;;;16.35;4.47;;;19.50;64.50;;;;;;5036461;28;20044;-66
2021/05/28 00:09:32;;;;;;;15.02;3.80;;;19.40;64.80;;;;;;5036258;28;20378;-67
2021/05/28 00:11:58;;;;;;;12.88;4.18;;;19.50;64.70;;;;;;5036372;28;20025;-68
2021/05/28 00:14:24;;;;;;;9.43;3.45;;;19.40;63.70;;;;;;5036171;28;20036;-68
2021/05/28 00:16:49;;;;;;;12.25;3.75;;;19.40;63.80;;;;;;5036316;28;20025;-68
2021/05/28 00:19:15;;;;;;;9.20;3.60;;;19.40;63.80;;;;;;5036080;28;20037;-69
2021/05/28 00:21:44;;;;;;;12.30;3.67;;;19.40;63.80;;;;;;5036100;28;20404;-68
2021/05/28 00:24:09;;;;;;;13.40;3.70;;;19.40;64.10;;;;;;5036340;28;20033;-67
2021/05/28 00:26:35;;;;;;;13.57;4.22;;;19.40;64.20;;;;;;5035829;28;20020;-70
2021/05/28 00:29:01;;;;;;;12.68;3.80;;;19.40;64.20;;;;;;5034631;28;20390;-68
2021/05/28 00:31:26;;;;;;;13.43;3.65;;;19.30;64.30;;;;;;5036184;28;20049;-73
2021/05/28 00:33:52;;;;;;;11.38;3.92;;;19.30;64.50;;;;;;5036000;28;20022;-68
2021/05/28 00:36:18;;;;;;;14.35;4.10;;;19.30;64.50;;;;;;5035821;28;20076;-70
2021/05/28 00:38:44;;;;;;;10.73;3.75;;;19.30;64.30;;;;;;5035828;28;20025;-68
2021/05/28 00:41:11;;;;;;;14.38;4.75;;;19.20;64.40;;;;;;5035814;28;20121;-66
2021/05/28 00:43:37;;;;;;;13.82;4.88;;;19.20;64.30;;;;;;5035945;28;20056;-68
2021/05/28 00:46:03;;;;;;;13.55;4.70;;;19.20;63.80;;;;;;5035534;28;20052;-67
2021/05/28 00:48:29;;;;;;;13.10;4.07;;;19.00;63.40;;;;;;5035704;28;20029;-66
2021/05/28 00:50:55;;;;;;;14.48;4.90;;;18.90;63.20;;;;;;5035555;28;20420;-68
2021/05/28 00:53:22;;;;;;;12.40;5.20;;;18.90;62.80;;;;;;5035698;28;20083;-68
2021/05/28 00:55:48;;;;;;;16.25;4.75;;;18.80;62.50;;;;;;5035551;28;20018;-68
2021/05/28 00:58:14;;;;;;;12.10;4.78;;;18.70;62.10;;;;;;5035592;28;20424;-67
2021/05/28 01:00:40;;;;;;;19.27;5.28;;;18.50;61.70;;;;;;5035382;28;20025;-67
2021/05/28 01:03:06;;;;;;;11.55;4.50;;;18.40;62.50;;;;;;5035413;28;20041;-68
2021/05/28 01:05:32;;;;;;;14.32;5.53;;;18.30;62.70;;;;;;5035432;28;20021;-68
2021/05/28 01:07:58;;;;;;;15.90;4.43;;;18.30;62.00;;;;;;5035345;28;20029;-68
2021/05/28 01:10:23;;;;;;;11.93;4.22;;;18.40;62.10;;;;;;5035256;28;20036;-69
2021/05/28 01:12:49;;;;;;;15.25;4.32;;;18.30;61.80;;;;;;5033872;28;20528;-68
2021/05/28 01:15:15;;;;;;;13.82;4.13;;;18.30;60.50;;;;;;5035044;28;20136;-68
2021/05/28 01:17:41;;;;;;;13.50;4.20;;;18.20;60.70;;;;;;5035023;28;20033;-69
2021/05/28 01:20:09;;;;;;;11.00;3.63;;;18.20;60.70;;;;;;5035032;28;20507;-68
2021/05/28 01:22:35;;;;;;;18.33;4.97;;;18.10;60.40;;;;;;5035290;28;20482;-71
2021/05/28 01:25:02;;;;;;;12.80;3.70;;;18.10;60.70;;;;;;5035027;28;20033;-67
2021/05/28 01:27:29;;;;;;;17.38;4.20;;;18.00;61.00;;;;;;5034677;28;20034;-70
2021/05/28 01:29:55;;;;;;;13.75;4.05;;;18.10;60.80;;;;;;5034960;28;20075;-69
2021/05/28 01:32:21;;;;;;;11.00;3.78;;;18.10;62.10;;;;;;5017313;28;20057;-73
2021/05/28 01:34:47;;;;;;;10.30;4.15;;;18.10;62.00;;;;;;5034989;28;20061;-72
2021/05/28 01:37:13;;;;;;;12.07;4.38;;;18.10;62.10;;;;;;5033622;28;20466;-70
2021/05/28 01:39:48;;;;;;;12.73;3.70;;;18.10;62.70;;;;;;5034533;28;20041;-69
2021/05/28 01:42:13;;;;;;;12.95;3.75;;;18.10;62.60;;;;;;5034592;28;20047;-68
2021/05/28 01:44:39;;;;;;;13.30;3.78;;;18.10;62.40;;;;;;5034719;28;20146;-69
2021/05/28 01:47:05;;;;;;;12.90;3.90;;;18.10;62.40;;;;;;5034553;28;20463;-69
2021/05/28 01:49:31;;;;;;;8.57;3.67;;;18.10;62.60;;;;;;5034438;28;20049;-70
2021/05/28 01:51:57;;;;;;;10.73;3.65;;;18.10;62.40;;;;;;5034254;28;20498;-67
2021/05/28 01:54:23;;;;;;;8.63;3.67;;;18.10;62.50;;;;;;5034379;28;20026;-68
2021/05/28 01:56:49;;;;;;;12.73;4.25;;;18.10;62.40;;;;;;5033514;28;20466;-68
2021/05/28 01:59:33;;;;;;;12.27;4.03;;;18.10;62.90;;;;;;5034498;28;20478;-67
2021/05/28 02:01:59;;;;;;;13.48;4.38;;;18.00;62.80;;;;;;5034245;28;20097;-67
2021/05/28 02:04:25;;;;;;;9.57;4.10;;;18.00;63.10;;;;;;5034405;28;20121;-68
2021/05/28 02:06:52;;;;;;;11.00;3.83;;;18.00;63.30;;;;;;5034133;28;20168;-69
2021/05/28 02:09:18;;;;;;;11.95;4.18;;;18.00;63.60;;;;;;5034439;28;20390;-67
2021/05/28 02:11:44;;;;;;;13.63;3.47;;;18.00;63.60;;;;;;5034098;28;20020;-67
2021/05/28 02:14:10;;;;;;;12.15;3.03;;;17.90;63.50;;;;;;5034197;28;20025;-68
2021/05/28 02:16:36;;;;;;;9.98;3.38;;;17.70;63.80;;;;;;5034132;28;20029;-67
2021/05/28 02:19:03;;;;;;;12.07;3.15;;;17.70;64.20;;;;;;5033806;28;20029;-69
2021/05/28 02:21:29;;;;;;;10.40;2.95;;;17.70;64.40;;;;;;5034093;28;20057;-66
2021/05/28 02:23:55;;;;;;;13.43;3.58;;;17.70;64.40;;;;;;5033967;28;20044;-66
2021/05/28 02:26:22;;;;;;;11.27;3.25;;;17.70;63.10;;;;;;5033819;28;20049;-71
2021/05/28 02:28:47;;;;;;;13.18;3.90;;;17.80;62.70;;;;;;5034337;28;20029;-69
2021/05/28 02:31:13;;;;;;;12.32;2.88;;;17.80;62.50;;;;;;5033902;28;20018;-68
2021/05/28 02:33:39;;;;;;;8.18;2.78;;;17.80;62.30;;;;;;5033506;28;20079;-67
2021/05/28 02:36:06;;;;;;;10.05;2.92;;;17.80;62.00;;;;;;5032794;28;20032;-68
2021/05/28 02:38:32;;;;;;;11.57;3.55;;;17.70;62.30;;;;;;5033523;28;20021;-72
2021/05/28 02:40:58;;;;;;;8.85;3.30;;;17.70;61.90;;;;;;5033805;28;20128;-70
2021/05/28 02:43:24;;;;;;;9.32;2.92;;;17.60;62.20;;;;;;5033916;28;20390;-71
2021/05/28 02:45:51;;;;;;;8.82;3.45;;;17.60;62.30;;;;;;5033749;28;20458;-71
2021/05/28 02:48:17;;;;;;;10.60;3.15;;;17.70;62.20;;;;;;5033401;28;20087;-69
2021/05/28 02:50:43;;;;;;;10.10;2.67;;;17.70;62.30;;;;;;5033576;28;20036;-69
2021/05/28 02:53:10;;;;;;;12.23;3.50;;;17.70;62.10;;;;;;5033736;28;20029;-68
2021/05/28 02:55:36;;;;;;;14.25;3.33;;;17.70;61.80;;;;;;5033818;28;20430;-68
2021/05/28 02:58:02;;;;;;;7.13;2.72;;;17.70;62.30;;;;;;5033379;28;20033;-67
2021/05/28 03:00:28;;;;;;;10.98;3.55;;;17.60;62.00;;;;;;5033554;28;20049;-68
2021/05/28 03:02:54;;;;;;;11.23;3.17;;;17.60;61.80;;;;;;5033242;28;20034;-68
2021/05/28 03:05:19;;;;;;;12.40;3.17;;;17.50;62.00;;;;;;5033221;28;20035;-68
2021/05/28 03:07:45;;;;;;;9.77;3.05;;;17.40;62.20;;;;;;5033403;28;20151;-72
2021/05/28 03:10:12;;;;;;;10.90;3.10;;;17.40;62.00;;;;;;5033549;28;20075;-68
2021/05/28 03:12:37;;;;;;;9.70;2.65;;;17.30;62.30;;;;;;5033323;28;20033;-67
2021/05/28 03:15:05;;;;;;;7.03;2.47;;;17.30;62.10;;;;;;5033172;28;20119;-70
2021/05/28 03:17:30;;;;;;;8.05;2.72;;;17.20;62.10;;;;;;5033058;28;20045;-71
2021/05/28 03:19:56;;;;;;;9.43;3.10;;;17.30;62.60;;;;;;5033002;28;20041;-73
2021/05/28 03:22:32;;;;;;;11.63;2.95;;;17.30;62.10;;;;;;5033507;28;20045;-70
2021/05/28 03:25:01;;;;;;;8.23;3.20;;;17.30;62.50;;;;;;5033181;28;20032;-71
2021/05/28 03:27:27;;;;;;;9.50;3.33;;;17.20;62.20;;;;;;5033038;28;20076;-67
2021/05/28 03:29:53;;;;;;;15.25;2.95;;;17.20;62.30;;;;;;5033026;28;20026;-67
2021/05/28 03:32:19;;;;;;;12.50;2.92;;;17.20;62.30;;;;;;5033213;28;20018;-68
2021/05/28 03:34:45;;;;;;;8.93;2.67;;;17.20;62.10;;;;;;5033061;28;20474;-68
2021/05/28 03:37:11;;;;;;;10.32;2.78;;;17.10;62.10;;;;;;5033038;28;20026;-68
2021/05/28 03:39:37;;;;;;;12.27;2.90;;;17.10;62.20;;;;;;5031670;28;20025;-67
2021/05/28 03:42:03;;;;;;;10.35;2.88;;;17.10;62.50;;;;;;5031742;28;20052;-70
2021/05/28 03:44:29;;;;;;;6.38;2.50;;;17.10;62.30;;;;;;5033191;28;20029;-69
2021/05/28 03:46:55;;;;;;;8.25;2.70;;;17.10;62.20;;;;;;5033097;28;20029;-68
2021/05/28 03:49:21;;;;;;;13.32;3.67;;;17.10;62.60;;;;;;5032242;28;20036;-67
2021/05/28 03:51:46;;;;;;;11.73;3.00;;;17.10;62.50;;;;;;5015543;28;20026;-69
2021/05/28 03:54:12;;;;;;;11.00;3.00;;;17.20;62.80;;;;;;5033118;28;20026;-68
2021/05/28 03:56:38;;;;;;;8.40;2.90;;;17.20;62.80;;;;;;5032682;28;20021;-66
2021/05/28 03:59:04;;;;;;;11.05;4.07;;;17.20;62.70;;;;;;5032880;28;20487;-67
2021/05/28 04:01:30;;;;;;;10.98;4.13;;;17.20;62.70;;;;;;5031800;28;20029;-70
2021/05/28 04:03:55;;;;;;;10.18;5.25;;;17.20;62.40;;;;;;5032579;28;20033;-68
2021/05/28 04:06:21;;;;;;;11.40;5.15;;;17.30;62.40;;;;;;5032763;28;20032;-69
2021/05/28 04:08:47;;;;;;;14.95;5.25;;;17.30;62.60;;;;;;5032756;28;20112;-67
2021/05/28 04:11:12;;;;;;;15.35;5.05;;;17.30;63.30;;;;;;5032863;28;20022;-68
2021/05/28 04:13:38;;;;;;;12.25;5.60;;;17.10;62.90;;;;;;5032857;28;20465;-67
2021/05/28 04:16:05;;;;;;;14.50;5.07;;;17.20;63.40;;;;;;5032717;28;20036;-68
2021/05/28 04:18:31;;;;;;;14.00;4.72;;;17.10;63.30;;;;;;5032782;28;20463;-68
2021/05/28 04:20:56;;;;;;;13.38;4.90;;;17.00;63.30;;;;;;5032992;28;20535;-73
2021/05/28 04:23:23;;;;;;;16.67;4.32;;;17.00;63.20;;;;;;5036097;28;20435;-76
2021/05/28 04:25:49;;;;;;;12.52;4.05;;;17.10;63.10;;;;;;5036238;28;20109;-68
2021/05/28 04:28:16;;;;;;;13.07;4.18;;;17.20;63.70;;;;;;5034994;28;20034;-68
2021/05/28 04:30:42;;;;;;;15.10;4.07;;;17.20;63.60;;;;;;5036242;28;20108;-67
2021/05/28 04:33:08;;;;;;;13.63;3.75;;;17.30;63.70;;;;;;5034877;28;20159;-68
2021/05/28 04:35:34;;;;;;;12.07;3.60;;;17.20;63.60;;;;;;5036448;28;20031;-66
2021/05/28 04:38:00;;;;;;;15.38;3.67;;;17.30;63.80;;;;;;5034972;28;20112;-67
2021/05/28 04:40:28;;;;;;;11.00;3.72;;;17.20;62.60;;;;;;5034680;28;20452;-70
2021/05/28 04:42:54;;;;;;;9.73;3.03;;;17.30;62.80;;;;;;5035794;28;20167;-69
2021/05/28 04:45:20;;;;;;;10.40;3.40;;;17.30;62.60;;;;;;5034476;28;20060;-66
2021/05/28 04:47:46;;;;;;;11.35;3.80;;;17.30;62.30;;;;;;5035541;28;20033;-72
2021/05/28 04:50:12;;;;;;;12.18;3.97;;;17.20;62.00;;;;;;5035702;28;20017;-67
2021/05/28 04:52:38;;;;;;;13.38;3.60;;;17.20;62.00;;;;;;5035786;28;20017;-68
2021/05/28 04:55:06;;;;;;;13.43;3.65;;;17.20;61.90;;;;;;5035854;28;20124;-69
2021/05/28 04:57:32;;;;;;;9.85;3.20;;;17.20;62.00;;;;;;5035555;28;20021;-67
2021/05/28 04:59:57;;;;;;;8.85;2.90;;;17.30;62.30;;;;;;5035453;28;20490;-69
2021/05/28 05:02:23;;;;;;;10.77;3.03;;;17.40;62.60;;;;;;5035469;28;20037;-72
2021/05/28 05:04:49;;;;;;;11.30;2.92;;;17.40;62.40;;;;;;5035394;28;20033;-70
2021/05/28 05:07:14;;;;;;;8.35;2.70;;;17.40;61.60;;;;;;5035110;28;20025;-69
2021/05/28 05:09:40;;;;;;;10.00;3.35;;;17.40;61.80;;;;;;5035324;28;20022;-66
2021/05/28 05:12:06;;;;;;;13.50;3.60;;;17.60;62.20;;;;;;5035366;28;20021;-73
2021/05/28 05:14:31;;;;;;;7.80;3.08;;;17.70;61.50;;;;;;5035368;28;20075;-66
2021/05/28 05:16:57;;;;;;;8.30;2.92;;;18.00;61.70;;;;;;5034966;28;20030;-70
2021/05/28 05:19:23;;;;;;;13.65;3.95;;;18.20;61.20;;;;;;5035203;28;20126;-72
2021/05/28 05:21:50;;;;;;;11.23;3.95;;;18.50;60.40;;;;;;5035106;28;20025;-71
2021/05/28 05:24:15;;;;;;;10.18;3.05;;;18.80;60.10;;;;;;5035069;28;20124;-68
2021/05/28 05:26:41;;;;;;;9.30;2.67;;;19.10;59.40;;;;;;5033933;28;20025;-70
2021/05/28 05:29:09;;;;;;;8.73;3.15;;;19.40;58.80;;;;;;5033425;28;20088;-69
2021/05/28 05:31:35;;;;;;;11.32;3.10;;;19.70;58.10;;;;;;5034324;28;20466;-67
2021/05/28 05:34:00;;;;;;;15.73;3.55;;;20.00;57.40;;;;;;5033222;28;20044;-68
2021/05/28 05:36:26;;;;;;;9.13;3.00;;;20.20;57.20;;;;;;5034559;28;20059;-69
2021/05/28 05:38:52;;;;;;;9.13;3.20;;;20.30;56.80;;;;;;5034843;28;20475;-68
2021/05/28 05:41:18;;;;;;;10.73;3.05;;;20.60;56.30;;;;;;5034569;28;20025;-70
2021/05/28 05:43:44;;;;;;;8.02;2.97;;;20.80;55.60;;;;;;5033652;28;20503;-71
2021/05/28 05:46:10;;;;;;;11.00;3.35;;;20.80;55.20;;;;;;5033330;28;20112;-72
2021/05/28 05:48:35;;;;;;;11.05;3.38;;;21.00;55.00;;;;;;5033221;28;20029;-68
2021/05/28 05:51:01;;;;;;;12.40;3.30;;;21.30;54.60;;;;;;5034464;28;20022;-75
2021/05/28 05:53:27;;;;;;;10.98;3.10;;;21.50;54.40;;;;;;5034471;28;20029;-71
2021/05/28 05:55:53;;;;;;;15.98;3.25;;;21.60;53.70;;;;;;5034435;28;20029;-70
2021/05/28 05:58:20;;;;;;;8.35;3.00;;;21.80;53.50;;;;;;5033938;28;20490;-68
2021/05/28 06:00:45;;;;;;;16.70;3.20;;;21.90;53.50;;;;;;5034273;28;20017;-71
2021/05/28 06:03:12;;;;;;;9.52;3.28;;;22.00;52.80;;;;;;5032608;28;20175;-69
2021/05/28 06:05:38;;;;;;;11.80;3.03;;;22.10;52.80;;;;;;5034175;28;20026;-69
2021/05/28 06:08:05;;;;;;;9.77;3.10;;;22.10;52.70;;;;;;5033936;28;20040;-67
2021/05/28 06:10:31;;;;;;;12.93;3.65;;;22.30;52.50;;;;;;5032824;28;20021;-69
2021/05/28 06:13:07;;;;;;;8.88;3.20;;;22.60;52.40;;;;;;5034094;28;20079;-69
2021/05/28 06:15:34;;;;;;;9.40;3.88;;;22.80;51.50;;;;;;5034042;28;20111;-70
2021/05/28 06:18:01;;;;;;;10.90;3.30;;;22.90;51.50;;;;;;5034050;28;20037;-68
2021/05/28 06:20:27;;;;;;;11.52;3.00;;;23.10;51.10;;;;;;5033585;28;20414;-70
2021/05/28 06:22:53;;;;;;;10.27;3.13;;;23.20;51.30;;;;;;5033538;28;20453;-67
2021/05/28 06:25:19;;;;;;;12.75;3.70;;;23.30;50.40;;;;;;5033170;28;20029;-68
2021/05/28 06:27:44;;;;;;;9.15;3.22;;;23.40;50.20;;;;;;5033219;28;20020;-68
2021/05/28 06:30:11;;;;;;;10.73;3.38;;;23.40;49.90;;;;;;5033268;28;20428;-68
2021/05/28 06:32:38;;;;;;;9.30;3.15;;;23.40;49.50;;;;;;5033606;28;20013;-69
2021/05/28 06:35:05;;;;;;;7.28;2.72;;;23.50;49.30;;;;;;5033697;28;20029;-68
2021/05/28 06:37:30;;;;;;;8.48;2.53;;;23.50;49.20;;;;;;5033186;28;20029;-69
2021/05/28 06:39:56;;;;;;;10.95;2.83;;;23.60;49.20;;;;;;5033158;28;20025;-70
2021/05/28 06:42:22;;;;;;;12.88;3.58;;;23.70;49.00;;;;;;5028930;28;20037;-67
2021/05/28 06:44:48;;;;;;;12.20;3.13;;;23.90;48.60;;;;;;5032327;28;20034;-68
2021/05/28 06:47:16;;;;;;;11.45;3.55;;;24.00;48.40;;;;;;5030812;28;20460;-69
2021/05/28 06:49:43;;;;;;;10.75;2.90;;;23.80;47.70;;;;;;5030780;28;20040;-70
2021/05/28 06:52:10;;;;;;;10.38;3.88;;;23.80;47.10;;;;;;5030909;28;20033;-68
2021/05/28 06:54:36;;;;;;;9.60;3.40;;;23.80;47.90;;;;;;5032909;28;20021;-68
2021/05/28 06:57:02;;;;;;;9.07;2.70;;;23.90;47.70;;;;;;5033036;28;20043;-70
2021/05/28 06:59:30;;;;;;;8.68;2.67;;;23.90;47.30;;;;;;4999029;28;20030;-72
2021/05/28 07:01:56;;;;;;;10.73;3.45;;;23.80;47.50;;;;;;5033246;28;20394;-71
2021/05/28 07:04:22;;;;;;;11.93;3.53;;;23.80;47.80;;;;;;5032911;28;20502;-68
2021/05/28 07:06:48;;;;;;;9.90;4.80;;;23.60;47.70;;;;;;5031373;28;20021;-69
2021/05/28 07:09:14;;;;;;;12.30;4.07;;;23.70;47.80;;;;;;5015092;28;20490;-68
2021/05/28 07:11:40;;;;;;;10.80;3.72;;;23.70;47.70;;;;;;5013354;28;20030;-68
2021/05/28 07:14:07;;;;;;;11.10;3.20;;;23.70;47.60;;;;;;5013371;28;20018;-66
2021/05/28 07:16:33;;;;;;;14.57;3.28;;;23.60;46.60;;;;;;5013251;28;20017;-66
2021/05/28 07:18:59;;;;;;;14.27;3.30;;;23.60;47.70;;;;;;5027816;28;20437;-67
2021/05/28 07:21:25;;;;;;;21.30;3.53;;;23.60;47.70;;;;;;5012825;28;20025;-67
2021/05/28 07:23:52;;;;;;;9.45;3.15;;;23.60;47.90;;;;;;5014133;28;20030;-67
2021/05/28 07:26:18;;;;;;;8.15;3.00;;;23.80;46.90;;;;;;5016522;28;20095;-67
2021/05/28 07:28:44;;;;;;;19.70;3.78;;;23.60;48.10;;;;;;5013170;28;20420;-67
2021/05/28 07:31:10;;;;;;;7.85;3.45;;;23.50;48.40;;;;;;5014281;28;20034;-68
2021/05/28 07:33:37;;;;;;;12.43;3.85;;;23.70;48.50;;;;;;5013151;28;20030;-72
2021/05/28 07:36:04;;;;;;;17.60;3.00;;;23.50;48.10;;;;;;5014071;28;20040;-71
2021/05/28 07:38:29;;;;;;;12.23;2.85;;;23.60;48.20;;;;;;5014066;28;20036;-68
2021/05/28 07:40:55;;;;;;;9.52;3.33;;;23.80;48.30;;;;;;5013080;28;20100;-66
2021/05/28 07:43:21;;;;;;;12.02;2.75;;;23.80;47.80;;;;;;5013206;28;20045;-70
2021/05/28 07:45:52;;;;;;;11.05;3.05;;;23.80;47.80;;;;;;5012899;28;20026;-67
2021/05/28 07:48:20;;;;;;;8.73;2.65;;;23.90;47.90;;;;;;5012587;28;20487;-69
2021/05/28 07:50:46;;;;;;;11.65;3.55;;;24.00;48.10;;;;;;5012949;28;20125;-68
2021/05/28 07:53:13;;;;;;;10.25;3.45;;;23.90;47.80;;;;;;5011318;28;20121;-69
2021/05/28 07:55:40;;;;;;;12.63;3.30;;;24.00;47.50;;;;;;5013891;28;20453;-70
2021/05/28 07:58:09;;;;;;;9.52;3.30;;;24.10;47.60;;;;;;5016298;28;20037;-72
2021/05/28 08:00:35;;;;;;;10.35;3.00;;;24.00;46.90;;;;;;5016544;28;20072;-69
2021/05/28 08:03:03;;;;;;;14.93;3.25;;;23.90;47.00;;;;;;5016331;28;20514;-70
2021/05/28 08:05:31;;;;;;;11.30;2.40;;;23.90;46.00;;;;;;5016591;28;20042;-69
2021/05/28 08:08:00;;;;;;;9.13;2.70;;;23.80;47.10;;;;;;5015016;28;20476;-68
2021/05/28 08:10:32;;;;;;;10.82;2.63;;;23.80;47.10;;;;;;5016300;28;20510;-68
2021/05/28 08:12:58;;;;;;;9.25;2.40;;;23.80;46.90;;;;;;5016279;28;20041;-69
2021/05/28 08:15:26;;;;;;;9.77;2.70;;;23.80;46.90;;;;;;5018433;28;20367;-67
2021/05/28 08:17:52;;;;;;;12.30;3.03;;;23.90;47.40;;;;;;5015006;28;20022;-75
2021/05/28 08:20:18;;;;;;;11.48;3.00;;;24.00;47.30;;;;;;5016481;28;20061;-67
2021/05/28 08:22:44;;;;;;;13.90;2.90;;;23.90;47.00;;;;;;5032435;28;20471;-67
2021/05/28 08:25:11;;;;;;;12.55;2.90;;;23.90;47.00;;;;;;5034587;28;20324;-67
2021/05/28 08:27:37;;;;;;;12.18;2.72;;;23.90;47.10;;;;;;5035774;28;20056;-70
2021/05/28 08:30:05;;;;;;;10.07;3.10;;;23.80;47.20;;;;;;5021412;28;20030;-68
2021/05/28 08:32:31;;;;;;;9.60;2.70;;;23.90;47.20;;;;;;5015411;28;20109;-69
2021/05/28 08:34:56;;;;;;;11.95;3.13;;;23.80;47.30;;;;;;5015572;28;20501;-70
2021/05/28 08:37:22;;;;;;;10.68;3.22;;;23.70;46.80;;;;;;5015540;28;20034;-68
2021/05/28 08:39:48;;;;;;;11.15;3.03;;;23.60;47.30;;;;;;5017325;28;20025;-68
2021/05/28 08:42:13;;;;;;;21.80;3.90;;;23.60;47.30;;;;;;5035111;28;20073;-69
2021/05/28 08:44:41;;;;;;;13.68;3.60;;;23.70;47.40;;;;;;5033863;28;20025;-67
2021/05/28 08:47:11;;;;;;;8.25;2.92;;;23.80;47.40;;;;;;5035021;28;20032;-71
2021/05/28 08:49:38;;;;;;;14.32;3.50;;;23.80;47.70;;;;;;5033974;28;20065;-69
2021/05/28 08:52:04;;;;;;;9.13;3.38;;;23.80;47.20;;;;;;5035181;28;20352;-68
2021/05/28 08:54:31;;;;;;;17.60;3.28;;;23.90;47.10;;;;;;5035176;28;20105;-67
2021/05/28 08:56:57;;;;;;;13.15;3.25;;;24.00;47.10;;;;;;5033851;28;20063;-70
2021/05/28 08:59:23;;;;;;;12.90;3.92;;;24.00;46.90;;;;;;5035365;28;20057;-70
2021/05/28 09:01:49;;;;;;;15.65;3.33;;;24.00;46.80;;;;;;5034983;28;20021;-70
2021/05/28 09:04:14;;;;;;;10.45;3.67;;;24.00;46.50;;;;;;5035030;28;20117;-70
2021/05/28 09:06:40;;;;;;;7.05;2.33;;;24.10;46.20;;;;;;5034533;28;20062;-71
2021/05/28 09:09:17;;;;;;;12.48;3.22;;;24.10;45.70;;;;;;5034970;28;20440;-69
2021/05/28 09:12:10;;;;;;;16.55;3.22;;;24.10;45.70;;;;;;5035138;28;20029;-70
2021/05/28 09:14:39;;;;;;;10.75;2.65;;;24.00;45.30;;;;;;5034129;28;20064;-69
2021/05/28 09:17:11;;;;;;;9.13;2.38;;;24.00;45.80;;;;;;5018762;28;20030;-68
2021/05/28 09:19:38;;;;;;;8.35;2.70;;;24.10;43.70;;;;;;5034504;28;20398;-69
2021/05/28 09:22:07;;;;;;;6.03;2.10;;;24.00;45.30;;;;;;5034784;28;20068;-70
2021/05/28 09:24:41;;;;;;;7.90;2.78;;;24.00;45.30;;;;;;5034324;28;20391;-67
2021/05/28 09:27:31;;;;;;;10.55;3.72;;;24.00;45.50;;;;;;5020367;28;20018;-72
2021/05/28 09:30:18;;;;;;;7.35;2.38;;;24.10;43.50;;;;;;5013531;28;20057;-75
2021/05/28 09:32:47;;;;;;;9.10;2.40;;;24.30;45.20;;;;;;5014696;28;20052;-73
2021/05/28 09:35:18;;;;;;;9.63;2.65;;;24.30;45.40;;;;;;5034419;28;20105;-71
2021/05/28 09:37:51;;;;;;;8.57;2.70;;;24.30;43.70;;;;;;5033146;28;20033;-71
2021/05/28 09:40:21;;;;;;;7.50;2.60;;;24.40;43.60;;;;;;5034730;28;20045;-70
2021/05/28 09:42:51;;;;;;;13.30;2.70;;;24.50;45.10;;;;;;5033795;28;20295;-67
2021/05/28 09:45:36;;;;;;;8.75;2.60;;;24.40;44.90;;;;;;5035130;28;20034;-69
2021/05/28 09:48:18;;;;;;;9.95;2.63;;;24.50;43.50;;;;;;5034339;28;20026;-68
2021/05/28 09:50:50;;;;;;;6.63;2.38;;;24.50;44.70;;;;;;5033373;28;20018;-71
2021/05/28 09:53:39;;;;;;;9.00;2.80;;;24.40;45.30;;;;;;5035212;28;20037;-71
2021/05/28 09:56:24;;;;;;;12.85;3.03;;;24.50;45.60;;;;;;5027639;28;20029;-69
2021/05/28 09:58:56;;;;;;;9.52;2.75;;;24.70;46.00;;;;;;5014720;28;20061;-68
2021/05/28 10:01:23;;;;;;;15.93;3.67;;;24.70;45.70;;;;;;5022917;28;20029;-69
2021/05/28 10:04:09;;;;;;;7.88;2.90;;;24.80;45.70;;;;;;5035707;28;20386;-68
2021/05/28 10:06:39;;;;;;;13.23;3.25;;;24.80;44.40;;;;;;5038726;28;20031;-68
2021/05/28 10:09:10;;;;;;;9.38;2.60;;;24.80;46.10;;;;;;5035200;28;20029;-68
2021/05/28 10:11:39;;;;;;;10.82;2.97;;;24.80;46.20;;;;;;5033099;28;20177;-67
2021/05/28 10:14:07;;;;;;;10.18;3.13;;;24.90;46.60;;;;;;5014880;28;20034;-68
2021/05/28 10:16:35;;;;;;;12.68;3.03;;;24.90;46.50;;;;;;5014995;28;20010;-67
2021/05/28 10:19:01;;;;;;;13.25;4.07;;;25.00;46.80;;;;;;5013566;28;20029;-69
2021/05/28 10:21:28;;;;;;;10.80;3.30;;;25.00;46.80;;;;;;5021573;28;20517;-68
2021/05/28 10:23:54;;;;;;;18.33;3.15;;;25.10;46.50;;;;;;5034275;28;20048;-69
2021/05/28 10:26:29;;;;;;;13.80;3.30;;;25.10;46.30;;;;;;5036982;28;20045;-72
2021/05/28 10:28:56;;;;;;;12.82;3.45;;;25.20;46.20;;;;;;5035413;28;20516;-69
2021/05/28 10:31:51;;;;;;;13.02;3.45;;;25.20;45.90;;;;;;5033689;28;20026;-76
2021/05/28 10:34:22;;;;;;;17.77;3.70;;;25.20;44.00;;;;;;5035395;28;20040;-72
2021/05/28 10:36:49;;;;;;;13.18;3.17;;;25.10;45.70;;;;;;5034245;28;20485;-72
2021/05/28 10:39:19;;;;;;;12.60;3.10;;;25.20;45.80;;;;;;5034097;28;20119;-80
2021/05/28 10:41:55;;;;;;;12.90;3.15;;;25.30;45.30;;;;;;5033695;28;20030;-68
2021/05/28 10:44:26;;;;;;;10.80;3.03;;;25.30;45.00;;;;;;5032501;28;20041;-67
2021/05/28 10:47:13;;;;;;;12.57;2.85;;;25.40;45.10;;;;;;5033657;28;20028;-76
2021/05/28 10:49:42;;;;;;;10.43;3.05;;;25.40;43.80;;;;;;5033389;28;20025;-71
2021/05/28 10:52:12;;;;;;;9.90;3.30;;;25.50;45.30;;;;;;5033325;28;20034;-71
2021/05/28 10:54:41;;;;;;;11.68;3.30;;;25.60;43.60;;;;;;5033107;28;20064;-65
2021/05/28 10:57:51;;;;;;;13.88;3.55;;;25.70;45.10;;;;;;5033100;28;20024;-66
2021/05/28 11:00:29;;;;;;;16.27;3.30;;;25.80;43.10;;;;;;5011470;28;20026;-69
2021/05/28 11:03:01;;;;;;;17.25;3.88;;;25.80;45.10;;;;;;5021056;28;20125;-68
2021/05/28 11:05:38;;;;;;;8.80;2.92;;;25.80;44.60;;;;;;5033239;28;20546;-66
2021/05/28 11:08:44;;;;;;;12.57;3.83;;;25.80;44.20;;;;;;5033034;28;20116;-70
2021/05/28 11:11:35;;;;;;;11.40;3.47;;;25.90;42.90;;;;;;5032932;28;20351;-68
2021/05/28 11:14:03;;;;;;;13.00;2.80;;;26.00;43.00;;;;;;5033177;28;20032;-67
2021/05/28 11:16:52;;;;;;;10.25;3.13;;;26.10;44.60;;;;;;5020408;28;20030;-71
2021/05/28 11:19:24;;;;;;;11.43;2.83;;;26.20;42.90;;;;;;5013226;28;20065;-68
2021/05/28 11:22:14;;;;;;;9.10;3.13;;;26.20;45.00;;;;;;5013297;28;20152;-72
2021/05/28 11:25:03;;;;;;;7.78;2.55;;;26.30;45.50;;;;;;5014545;28;20026;-72
2021/05/28 11:27:32;;;;;;;13.35;3.28;;;26.40;45.60;;;;;;5016918;28;20462;-68
2021/05/28 11:30:07;;;;;;;9.30;2.75;;;26.50;45.40;;;;;;5014564;28;20036;-72
2021/05/28 11:32:44;;;;;;;15.70;2.70;;;26.50;45.10;;;;;;5018072;28;20034;-68
2021/05/28 11:35:15;;;;;;;10.63;2.70;;;26.50;43.60;;;;;;5016092;28;20030;-68
2021/05/28 11:37:44;;;;;;;9.07;3.10;;;26.60;44.30;;;;;;5017535;28;20045;-69
2021/05/28 11:40:15;;;;;;;14.40;2.85;;;26.60;44.70;;;;;;5017376;28;20541;-67
2021/05/28 11:42:43;;;;;;;9.38;2.95;;;26.50;44.80;;;;;;5015836;28;20547;-72
2021/05/28 11:45:12;;;;;;;8.80;3.47;;;26.50;44.00;;;;;;5017135;28;20621;-68
2021/05/28 11:47:40;;;;;;;12.52;3.08;;;26.60;45.30;;;;;;5015724;28;20034;-73
2021/05/28 11:50:12;;;;;;;13.55;2.70;;;26.70;45.00;;;;;;5017490;28;20125;-67
2021/05/28 11:52:39;;;;;;;10.80;2.80;;;26.60;45.00;;;;;;5018048;28;20578;-69
2021/05/28 11:55:11;;;;;;;7.40;2.65;;;26.60;45.50;;;;;;5016831;28;20109;-68
2021/05/28 11:57:38;;;;;;;9.32;3.60;;;26.60;45.10;;;;;;5015982;28;20026;-68
2021/05/28 12:00:11;;;;;;;7.10;2.45;;;26.70;45.40;;;;;;5016986;28;20049;-70
2021/05/28 12:02:39;;;;;;;8.90;2.75;;;26.70;44.40;;;;;;5016540;28;20026;-67
2021/05/28 12:05:32;;;;;;;10.23;3.15;;;26.70;45.60;;;;;;5018443;28;20359;-69
2021/05/28 12:08:21;;;;;;;11.98;3.80;;;26.80;43.70;;;;;;5018138;28;20084;-68
2021/05/28 12:10:48;;;;;;;8.60;2.65;;;26.90;45.60;;;;;;5016708;28;20034;-69
2021/05/28 12:13:17;;;;;;;9.32;3.13;;;27.00;45.70;;;;;;5016927;28;20452;-71
2021/05/28 12:15:51;;;;;;;8.48;2.58;;;27.00;45.10;;;;;;5016925;28;20364;-67
2021/05/28 12:18:47;;;;;;;9.68;2.67;;;27.00;45.10;;;;;;5016243;28;20029;-67
2021/05/28 12:21:22;;;;;;;13.02;2.40;;;27.10;44.40;;;;;;5028949;28;20061;-68
2021/05/28 12:23:53;;;;;;;10.38;2.50;;;27.00;44.80;;;;;;5036396;28;20504;-68
2021/05/28 12:26:27;;;;;;;9.32;2.90;;;27.00;45.00;;;;;;5036136;28;20068;-70
2021/05/28 12:28:55;;;;;;;10.68;2.85;;;27.00;42.90;;;;;;5036077;28;20057;-68
2021/05/28 12:31:26;;;;;;;8.43;2.50;;;27.00;44.10;;;;;;5036250;28;20034;-67
2021/05/28 12:33:55;;;;;;;9.65;2.63;;;27.10;44.10;;;;;;5036079;28;20025;-70
2021/05/28 12:36:36;;;;;;;8.80;2.65;;;27.20;42.70;;;;;;5035618;28;20387;-73
2021/05/28 12:39:09;;;;;;;6.28;2.80;;;27.40;44.10;;;;;;5036596;28;20037;-72
2021/05/28 12:41:44;;;;;;;22.52;2.65;;;27.50;43.10;;;;;;5034676;28;20037;-70
2021/05/28 12:44:18;;;;;;;10.25;3.00;;;27.60;43.30;;;;;;5036622;28;20041;-80
2021/05/28 12:46:54;;;;;;;9.95;2.72;;;27.80;44.30;;;;;;5036162;28;20026;-71
2021/05/28 12:49:34;;;;;;;8.75;2.75;;;27.80;44.10;;;;;;5034914;28;20029;-72